Rush Hill, Missouri
Current Conditions -  °F | °C
As of 12:35 AM on Saturday 29 Nov 2014 (Local Time) from KHAE Reporting Station
Clear Clear  
Wind Chill: 37°   Ceiling: Unl
Heat Index: 43°   Visibility: 10mi
Dew Point: 32°   Wind: 12mph
Humidity: 66%   Direction: 180°S
Pressure: 29.74"   Gusts: 16mph
Location:  39.21°N, 91.72°W
Report Text: KHAE 290635Z AUTO 18010G14KT 10SM CLR 06/00 A2974 RMK AO2
Loading
Personal Weather Stations






























Interactive Weather Map New forecast layout! Learn more

10-Day Weather Forecast

Advertisements
Track Severe Weather on mobile